Time;durP1;ratioP1;P1;durP2;ratioP2;P2;SDS_P1;SDS_P2;PMS_P1;PMS_P2;Temp;Humidity;BMP_temperature;BMP_pressure;BME280_temperature;BME280_humidity;BME280_pressure;Samples;Min_cycle;Max_cycle;Signal;HPM_P1;HPM_P2
2023/10/04 00:00:59;;;;;;;14.10;7.70;;;;;;;14.02;100.00;101610.91;5010851;28;20398;-70
2023/10/04 00:03:26;;;;;;;18.23;7.43;;;;;;;13.85;100.00;101548.94;4993349;28;20037;-71
2023/10/04 00:05:52;;;;;;;15.40;7.75;;;;;;;14.01;100.00;101604.09;4993026;28;20026;-70
2023/10/04 00:08:17;;;;;;;15.13;7.40;;;;;;;13.66;100.00;101627.63;5010506;28;20034;-71
2023/10/04 00:10:44;;;;;;;16.90;8.20;;;;;;;14.08;100.00;101561.34;5010672;28;20480;-71
2023/10/04 00:13:12;;;;;;;16.42;8.30;;;;;;;14.22;100.00;101551.75;5010963;28;20058;-69
2023/10/04 00:15:38;;;;;;;17.55;8.15;;;;;;;13.86;100.00;101597.47;5010517;28;20026;-70
2023/10/04 00:18:04;;;;;;;19.05;8.15;;;;;;;14.34;100.00;101584.81;5010814;28;20034;-71
2023/10/04 00:20:34;;;;;;;13.27;7.40;;;;;;;14.63;100.00;101590.25;5010733;28;20555;-70
2023/10/04 00:23:04;;;;;;;18.30;8.05;;;;;;;14.14;100.00;101568.94;5013900;28;20057;-70
2023/10/04 00:25:29;;;;;;;18.08;8.20;;;;;;;13.59;100.00;101554.44;5014426;28;20030;-71
2023/10/04 00:27:58;;;;;;;14.10;7.70;;;;;;;13.95;100.00;101545.38;5014114;28;20412;-71
2023/10/04 00:30:29;;;;;;;20.73;8.40;;;;;;;14.55;100.00;101599.78;5014453;28;20060;-70
2023/10/04 00:32:55;;;;;;;14.70;7.70;;;;;;;14.27;100.00;101594.28;5014424;28;20412;-70
2023/10/04 00:35:22;;;;;;;18.90;7.45;;;;;;;14.03;100.00;101596.38;5014672;28;20037;-70
2023/10/04 00:37:55;;;;;;;16.25;7.28;;;;;;;14.09;100.00;101588.59;5014186;28;20018;-70
2023/10/04 00:40:32;;;;;;;19.05;7.53;;;;;;;13.78;100.00;101542.25;5014102;28;20030;-70
2023/10/04 00:43:01;;;;;;;14.35;7.45;;;;;;;13.69;100.00;101543.22;5013955;28;20034;-69
2023/10/04 00:45:32;;;;;;;18.70;8.05;;;;;;;13.44;100.00;101536.81;4996266;28;20124;-70
2023/10/04 00:47:59;;;;;;;17.83;8.17;;;;;;;13.66;100.00;101606.34;4996580;28;20033;-70
2023/10/04 00:50:34;;;;;;;18.38;9.10;;;;;;;13.54;100.00;101592.03;5012636;28;20037;-69
2023/10/04 00:53:03;;;;;;;19.52;9.57;;;;;;;13.37;100.00;101578.63;5014151;28;20034;-68
2023/10/04 00:55:31;;;;;;;21.85;9.13;;;;;;;12.97;100.00;101545.06;5013774;28;20106;-70
2023/10/04 00:57:56;;;;;;;17.98;7.38;;;;;;;12.50;100.00;101537.09;5013602;28;20427;-69
2023/10/04 01:00:23;;;;;;;18.02;7.82;;;;;;;12.46;100.00;101534.63;4996170;28;20045;-68
2023/10/04 01:02:49;;;;;;;17.73;8.15;;;;;;;12.36;100.00;101520.28;5013972;28;20450;-69
2023/10/04 01:05:16;;;;;;;16.52;8.43;;;;;;;12.39;100.00;101540.63;4995815;28;20026;-69
2023/10/04 01:07:42;;;;;;;20.38;10.57;;;;;;;12.44;100.00;101536.34;5014961;28;20054;-69
2023/10/04 01:10:15;;;;;;;17.80;9.60;;;;;;;12.42;100.00;101538.06;5008290;28;20032;-68
2023/10/04 01:12:45;;;;;;;15.85;9.15;;;;;;;12.67;100.00;101588.81;5020191;28;20034;-69
2023/10/04 01:18:07;;;;;;;19.90;9.43;;;;;;;11.97;100.00;101518.94;4999785;28;20045;-69
2023/10/04 01:20:33;;;;;;;20.70;10.38;;;;;;;12.23;100.00;101554.41;5013811;28;20033;-69
2023/10/04 01:23:06;;;;;;;18.52;10.25;;;;;;;12.76;100.00;101583.59;5013459;28;20099;-70
2023/10/04 01:25:34;;;;;;;21.08;10.80;;;;;;;12.72;100.00;101522.41;4995698;28;20034;-71
2023/10/04 01:28:07;;;;;;;19.65;10.70;;;;;;;12.43;100.00;101514.25;5012831;28;20038;-70
2023/10/04 01:30:33;;;;;;;22.30;9.90;;;;;;;13.12;100.00;101574.69;5013487;28;20022;-69
2023/10/04 01:33:03;;;;;;;17.92;9.20;;;;;;;12.77;100.00;101574.25;5012033;28;20029;-69
2023/10/04 01:35:29;;;;;;;16.98;8.95;;;;;;;12.87;100.00;101553.72;5013111;28;20033;-69
2023/10/04 01:37:54;;;;;;;17.58;8.68;;;;;;;12.67;100.00;101542.03;5013069;28;20057;-69
2023/10/04 01:40:25;;;;;;;14.15;8.35;;;;;;;12.92;100.00;101535.78;5012760;28;20492;-69
2023/10/04 01:42:55;;;;;;;17.38;7.78;;;;;;;12.72;100.00;101509.63;4995096;28;20125;-70
2023/10/04 01:45:21;;;;;;;13.45;7.20;;;;;;;12.87;100.00;101528.19;5012609;28;20049;-70
2023/10/04 01:47:46;;;;;;;13.98;7.30;;;;;;;12.71;100.00;101500.31;5013018;28;20073;-70
2023/10/04 01:50:12;;;;;;;18.30;7.75;;;;;;;12.69;100.00;101546.28;5013039;28;20125;-70
2023/10/04 01:52:38;;;;;;;14.80;7.38;;;;;;;12.86;100.00;101520.53;5012924;28;20056;-70
2023/10/04 01:55:10;;;;;;;15.20;7.20;;;;;;;12.51;100.00;101502.25;5012879;28;20084;-70
2023/10/04 01:57:36;;;;;;;13.55;7.38;;;;;;;12.33;100.00;101448.88;4995082;28;20036;-70
2023/10/04 02:00:02;;;;;;;13.93;7.05;;;;;;;12.61;100.00;101522.56;5012041;28;20583;-70
2023/10/04 02:02:27;;;;;;;15.70;6.97;;;;;;;12.38;100.00;101556.81;5012690;28;20109;-70
2023/10/04 02:04:54;;;;;;;13.10;7.03;;;;;;;12.43;100.00;101557.59;5012209;28;20080;-70
2023/10/04 02:07:24;;;;;;;15.60;7.55;;;;;;;12.30;100.00;101548.41;5012636;28;20040;-71
2023/10/04 02:09:52;;;;;;;15.70;7.78;;;;;;;12.29;100.00;101564.53;4994665;28;20109;-70
2023/10/04 02:12:22;;;;;;;18.30;7.20;;;;;;;12.45;100.00;101545.69;5011029;28;20029;-70
2023/10/04 02:14:48;;;;;;;16.40;7.47;;;;;;;12.38;100.00;101498.16;5012437;28;20459;-70
2023/10/04 02:17:17;;;;;;;16.60;7.70;;;;;;;11.97;100.00;101493.44;5012471;28;20037;-70
2023/10/04 02:19:45;;;;;;;20.00;8.63;;;;;;;12.22;100.00;101555.28;5012276;28;20036;-70
2023/10/04 02:22:12;;;;;;;16.27;7.85;;;;;;;12.25;100.00;101477.03;5012209;28;20044;-69
2023/10/04 02:24:38;;;;;;;21.52;9.13;;;;;;;12.34;100.00;101548.31;5012006;28;20050;-71
2023/10/04 02:27:08;;;;;;;16.77;8.38;;;;;;;12.30;100.00;101548.41;5012072;28;20108;-70
2023/10/04 02:29:34;;;;;;;16.30;7.93;;;;;;;12.85;100.00;101529.91;5012149;28;20030;-70
2023/10/04 02:32:08;;;;;;;19.10;8.40;;;;;;;12.42;100.00;101541.44;5011865;28;20590;-70
2023/10/04 02:34:34;;;;;;;15.02;8.00;;;;;;;12.50;100.00;101542.22;4994474;28;20037;-71
2023/10/04 02:37:00;;;;;;;17.23;8.60;;;;;;;12.42;100.00;101477.69;4994332;28;20080;-70
2023/10/04 02:39:25;;;;;;;16.08;8.25;;;;;;;12.34;100.00;101491.41;5011787;28;20034;-72
2023/10/04 02:41:50;;;;;;;17.70;8.45;;;;;;;12.30;100.00;101461.69;5012372;28;20106;-71
2023/10/04 02:44:17;;;;;;;16.80;8.43;;;;;;;12.35;100.00;101516.88;5011298;28;20420;-70
2023/10/04 02:46:45;;;;;;;19.95;8.23;;;;;;;12.37;100.00;101548.31;5011906;28;20033;-70
2023/10/04 02:49:10;;;;;;;17.95;8.52;;;;;;;12.49;100.00;101537.13;4994325;28;20041;-70
2023/10/04 02:51:36;;;;;;;16.40;8.05;;;;;;;12.25;100.00;101535.69;5011552;28;20030;-70
2023/10/04 02:54:04;;;;;;;15.65;7.43;;;;;;;12.06;100.00;101540.09;5009747;28;20482;-70
2023/10/04 02:56:30;;;;;;;14.10;7.63;;;;;;;12.12;100.00;101529.03;4994212;28;20040;-70
2023/10/04 02:58:56;;;;;;;16.55;7.82;;;;;;;11.34;100.00;101497.34;5011728;28;20485;-70
2023/10/04 03:01:26;;;;;;;15.18;7.63;;;;;;;11.92;100.00;101546.19;5010056;28;20117;-70
2023/10/04 03:03:52;;;;;;;18.83;7.55;;;;;;;11.21;100.00;101475.38;5011763;28;20034;-70
2023/10/04 03:06:22;;;;;;;19.20;7.80;;;;;;;11.74;100.00;101547.19;5011110;28;20037;-70
2023/10/04 03:08:50;;;;;;;19.65;8.57;;;;;;;11.72;100.00;101546.34;5011224;28;20492;-71
2023/10/04 03:11:16;;;;;;;17.38;7.72;;;;;;;11.56;100.00;101541.31;5011365;28;20022;-70
2023/10/04 03:13:41;;;;;;;15.48;7.95;;;;;;;11.36;100.00;101564.38;4993976;28;20508;-70
2023/10/04 03:16:07;;;;;;;15.95;7.70;;;;;;;11.06;100.00;101489.03;5011434;28;20030;-70
2023/10/04 03:18:35;;;;;;;15.57;7.53;;;;;;;10.95;100.00;101511.13;5009998;28;20403;-71
2023/10/04 03:23:32;;;;;;;19.70;7.53;;;;;;;11.49;100.00;101570.25;5011220;28;20286;-69
2023/10/04 03:26:03;;;;;;;17.67;8.40;;;;;;;11.24;100.00;101555.09;5011227;28;20030;-69
2023/10/04 03:28:34;;;;;;;14.32;7.38;;;;;;;11.52;100.00;101557.47;5011216;28;20038;-71
2023/10/04 03:31:04;;;;;;;15.98;7.55;;;;;;;11.33;100.00;101485.44;5003511;28;20029;-71
2023/10/04 03:33:32;;;;;;;21.55;7.90;;;;;;;11.66;100.00;101548.94;4986745;28;20058;-69
2023/10/04 03:35:58;;;;;;;17.98;7.97;;;;;;;11.92;100.00;101552.09;4978751;28;20026;-69
2023/10/04 03:38:25;;;;;;;17.42;8.00;;;;;;;11.38;100.00;101555.03;4991701;28;20038;-70
2023/10/04 03:40:55;;;;;;;16.13;7.95;;;;;;;11.17;100.00;101507.59;4991447;28;20460;-71
2023/10/04 03:43:20;;;;;;;18.40;8.02;;;;;;;11.57;100.00;101566.78;4972336;28;20489;-71
2023/10/04 03:45:46;;;;;;;18.38;8.18;;;;;;;11.04;100.00;101556.91;4973303;28;20037;-70
2023/10/04 03:48:17;;;;;;;22.42;8.70;;;;;;;11.06;100.00;101508.53;4991120;28;20081;-71
2023/10/04 03:50:48;;;;;;;21.60;9.02;;;;;;;11.23;100.00;101543.22;4990011;28;20036;-70
2023/10/04 03:53:15;;;;;;;18.80;8.43;;;;;;;11.13;100.00;101558.56;4991208;28;20564;-71
2023/10/04 03:55:46;;;;;;;18.98;8.82;;;;;;;11.15;100.00;101542.41;4971881;28;20486;-70
2023/10/04 03:58:12;;;;;;;18.08;8.63;;;;;;;10.97;100.00;101504.31;4993482;28;20045;-70
2023/10/04 04:00:38;;;;;;;17.90;8.55;;;;;;;11.00;100.00;101496.69;4995223;28;20030;-70
2023/10/04 04:03:04;;;;;;;18.52;8.73;;;;;;;10.88;100.00;101499.28;4994539;28;20118;-71
2023/10/04 04:05:32;;;;;;;17.30;8.30;;;;;;;11.08;100.00;101560.25;4994739;28;20413;-67
2023/10/04 04:07:58;;;;;;;18.58;8.27;;;;;;;11.37;100.00;101543.13;4994475;28;20026;-70
2023/10/04 04:10:24;;;;;;;17.83;7.70;;;;;;;11.10;100.00;101498.31;4976599;28;20090;-68
2023/10/04 04:12:50;;;;;;;17.35;7.90;;;;;;;10.93;100.00;101558.66;4994380;28;20145;-69
2023/10/04 04:15:18;;;;;;;16.85;8.15;;;;;;;10.77;100.00;101562.09;4994643;28;20445;-69
2023/10/04 04:17:45;;;;;;;18.13;8.43;;;;;;;10.69;100.00;101481.56;4994735;28;20041;-70
2023/10/04 04:20:14;;;;;;;17.90;7.75;;;;;;;11.28;100.00;101555.94;4994896;28;20034;-70
2023/10/04 04:22:52;;;;;;;22.48;8.50;;;;;;;10.73;100.00;101511.22;4994248;28;20034;-70
2023/10/04 04:25:19;;;;;;;22.58;8.80;;;;;;;10.85;100.00;101569.69;4994560;28;20038;-68
2023/10/04 04:27:46;;;;;;;21.48;8.80;;;;;;;10.83;100.00;101531.56;4994421;28;20031;-67
2023/10/04 04:30:23;;;;;;;19.42;8.93;;;;;;;11.20;100.00;101566.16;4994570;28;20043;-68
2023/10/04 04:32:55;;;;;;;18.45;8.57;;;;;;;11.27;100.00;101551.66;4995689;28;20038;-68
2023/10/04 04:35:47;;;;;;;;;;;;;;;11.27;100.00;101564.41;4966477;28;20086;-68
2023/10/04 04:38:16;;;;;;;23.52;10.93;;;;;;;11.55;100.00;101562.56;4974885;28;19910;-69
2023/10/04 04:40:50;;;;;;;27.02;11.70;;;;;;;11.50;100.00;101560.03;4992626;28;20070;-70
2023/10/04 04:45:56;;;;;;;33.15;13.00;;;;;;;11.71;100.00;101498.78;4994607;28;20101;-72
2023/10/04 04:48:26;;;;;;;41.75;25.52;;;;;;;13.07;100.00;101564.53;4994559;28;20104;-70
2023/10/04 04:50:54;;;;;;;37.42;20.70;;;;;;;14.07;100.00;101540.03;4994411;28;20053;-70
2023/10/04 04:53:24;;;;;;;25.45;13.30;;;;;;;14.43;100.00;101534.31;4976554;28;20030;-68
2023/10/04 04:55:50;;;;;;;22.55;11.20;;;;;;;14.07;100.00;101495.72;4975193;28;20057;-70
2023/10/04 04:58:18;;;;;;;21.70;10.63;;;;;;;14.71;100.00;101521.81;4976285;28;20043;-72
2023/10/04 05:00:44;;;;;;;25.70;10.95;;;;;;;15.06;100.00;101519.38;4976704;28;20054;-69
2023/10/04 05:03:13;;;;;;;19.70;10.13;;;;;;;15.24;100.00;101449.78;4975829;28;20120;-68
2023/10/04 05:05:40;;;;;;;22.25;9.45;;;;;;;15.14;100.00;101430.38;4993234;28;20096;-70
2023/10/04 05:08:05;;;;;;;26.92;9.57;;;;;;;15.51;100.00;101446.59;4975459;28;20038;-71
2023/10/04 05:10:38;;;;;;;20.40;8.50;;;;;;;16.62;100.00;101495.00;4993364;28;20042;-71
2023/10/04 05:13:07;;;;;;;21.55;8.98;;;;;;;16.49;100.00;101489.34;4993339;28;20034;-72
2023/10/04 05:15:34;;;;;;;21.90;10.50;;;;;;;16.23;100.00;101497.72;4975812;28;20415;-70
2023/10/04 05:18:00;;;;;;;17.13;8.75;;;;;;;16.16;100.00;101460.25;4994158;28;20130;-71
2023/10/04 05:20:31;;;;;;;19.50;8.60;;;;;;;15.17;100.00;101465.34;4994340;28;20109;-71
2023/10/04 05:22:58;;;;;;;23.40;10.20;;;;;;;14.23;100.00;101553.41;4975953;28;20104;-70
2023/10/04 05:25:23;;;;;;;18.92;9.73;;;;;;;13.54;100.00;101499.19;4992462;28;20034;-70
2023/10/04 05:27:50;;;;;;;19.58;8.90;;;;;;;13.98;100.00;101544.47;4993906;28;20049;-70
2023/10/04 05:30:16;;;;;;;22.25;11.20;;;;;;;13.99;100.00;101556.38;4993532;28;20080;-72
2023/10/04 05:32:46;;;;;;;53.58;34.60;;;;;;;13.30;100.00;101546.38;4993458;28;20560;-73
2023/10/04 05:35:12;;;;;;;37.13;20.52;;;;;;;12.97;100.00;101600.41;4994042;28;20035;-72
2023/10/04 05:37:44;;;;;;;28.67;14.27;;;;;;;12.83;100.00;101525.69;4976338;28;20037;-72
2023/10/04 05:40:16;;;;;;;26.70;11.65;;;;;;;13.99;100.00;101566.59;4993903;28;20027;-72
2023/10/04 05:42:46;;;;;;;21.17;9.77;;;;;;;13.43;100.00;101486.56;4993731;28;20409;-74
2023/10/04 05:45:12;;;;;;;19.02;9.27;;;;;;;13.50;100.00;101526.50;4993360;28;20096;-71
2023/10/04 05:47:38;;;;;;;24.17;9.20;;;;;;;13.47;100.00;101516.31;4976132;28;20504;-71
2023/10/04 05:50:05;;;;;;;22.65;10.02;;;;;;;14.67;100.00;101549.22;4993116;28;20034;-71
2023/10/04 05:52:34;;;;;;;25.73;10.38;;;;;;;14.48;100.00;101526.56;4993044;28;20042;-72
2023/10/04 05:55:00;;;;;;;20.92;9.32;;;;;;;15.27;100.00;101566.75;4975749;28;20029;-71
2023/10/04 05:57:26;;;;;;;19.98;9.10;;;;;;;15.59;100.00;101531.00;4992872;28;20078;-71
2023/10/04 05:59:52;;;;;;;18.92;8.75;;;;;;;15.42;100.00;101567.28;4993212;28;20038;-72
2023/10/04 06:02:18;;;;;;;16.30;7.90;;;;;;;15.95;100.00;101571.16;4993237;28;20030;-72
2023/10/04 06:04:44;;;;;;;15.60;8.10;;;;;;;15.67;100.00;101490.63;4991793;28;20041;-73
2023/10/04 06:07:09;;;;;;;17.77;8.18;;;;;;;15.46;100.00;101450.13;4992740;28;20030;-72
2023/10/04 06:09:42;;;;;;;19.05;8.25;;;;;;;15.29;100.00;101588.06;4992937;28;20398;-71
2023/10/04 06:12:08;;;;;;;21.30;8.68;;;;;;;15.39;100.00;101581.88;4975187;28;20046;-72
2023/10/04 06:14:35;;;;;;;19.50;8.10;;;;;;;16.35;100.00;101560.72;4992985;28;20026;-72
2023/10/04 06:17:00;;;;;;;16.15;7.30;;;;;;;15.19;100.00;101556.66;4993046;28;20417;-72
2023/10/04 06:19:27;;;;;;;18.05;8.05;;;;;;;16.52;100.00;101544.94;4975035;28;20060;-70
2023/10/04 06:21:53;;;;;;;21.27;7.93;;;;;;;16.85;100.00;101567.09;4992864;28;20102;-72
2023/10/04 06:24:18;;;;;;;15.02;8.30;;;;;;;17.17;100.00;101552.41;4992902;28;20094;-71
2023/10/04 06:26:44;;;;;;;21.27;8.20;;;;;;;15.99;100.00;101565.06;4992430;28;20519;-71
2023/10/04 06:29:09;;;;;;;16.48;8.38;;;;;;;17.10;100.00;101563.78;4991352;28;20023;-71
2023/10/04 06:31:35;;;;;;;19.48;9.10;;;;;;;17.35;100.00;101556.19;4992453;28;20033;-72
2023/10/04 06:34:02;;;;;;;18.73;9.30;;;;;;;17.09;100.00;101568.97;4992603;28;20037;-71
2023/10/04 06:36:29;;;;;;;17.98;8.90;;;;;;;18.01;100.00;101553.22;4992501;28;20464;-68
2023/10/04 06:38:55;;;;;;;20.15;8.93;;;;;;;17.85;100.00;101567.47;4975236;28;20030;-71
2023/10/04 06:41:25;;;;;;;19.00;8.52;;;;;;;18.02;100.00;101568.63;4992437;28;20037;-72
2023/10/04 06:43:51;;;;;;;17.55;9.02;;;;;;;18.30;100.00;101504.16;4992657;28;20046;-71
2023/10/04 06:46:18;;;;;;;17.52;8.35;;;;;;;17.89;100.00;101553.63;4992404;28;20393;-71
2023/10/04 06:48:45;;;;;;;16.75;8.55;;;;;;;18.58;100.00;101535.78;4992349;28;20058;-71
2023/10/04 06:51:11;;;;;;;18.27;8.48;;;;;;;18.11;100.00;101523.69;4992260;28;20556;-71
2023/10/04 06:53:41;;;;;;;17.13;8.43;;;;;;;18.55;100.00;101547.94;4992116;28;20114;-72
2023/10/04 06:56:06;;;;;;;18.98;8.23;;;;;;;18.90;100.00;101548.34;4974569;28;20040;-71
2023/10/04 06:58:32;;;;;;;19.52;8.43;;;;;;;19.48;100.00;101528.94;4992157;28;20038;-71
2023/10/04 07:00:57;;;;;;;17.95;7.80;;;;;;;18.46;100.00;101509.66;4991770;28;20037;-71
2023/10/04 07:03:26;;;;;;;17.17;8.35;;;;;;;19.26;100.00;101540.13;4992077;28;20169;-71
2023/10/04 07:05:51;;;;;;;14.90;8.30;;;;;;;19.15;100.00;101545.72;4991319;28;20057;-71
2023/10/04 07:08:17;;;;;;;15.20;7.70;;;;;;;18.94;100.00;101539.59;4972195;28;20027;-70
2023/10/04 07:10:43;;;;;;;16.20;7.97;;;;;;;18.52;100.00;101505.09;4983249;28;20043;-71
2023/10/04 07:13:09;;;;;;;16.77;7.57;;;;;;;19.23;100.00;101443.09;4992193;28;20035;-72
2023/10/04 07:15:35;;;;;;;13.50;7.53;;;;;;;19.12;100.00;101548.38;4992166;28;20037;-71
2023/10/04 07:18:04;;;;;;;17.35;8.10;;;;;;;19.82;100.00;101531.00;4991813;28;20066;-69
2023/10/04 07:20:30;;;;;;;16.50;7.78;;;;;;;18.77;100.00;101490.44;4991783;28;20085;-70
2023/10/04 07:22:59;;;;;;;15.77;7.47;;;;;;;19.72;100.00;101540.88;4991299;28;20034;-71
2023/10/04 07:25:29;;;;;;;20.13;7.75;;;;;;;20.13;100.00;101509.88;4991734;28;20168;-71
2023/10/04 07:28:02;;;;;;;18.43;8.10;;;;;;;20.01;100.00;101510.41;4991761;28;20058;-70
2023/10/04 07:30:36;;;;;;;17.35;7.85;;;;;;;20.33;100.00;101508.16;4991343;28;20073;-70
2023/10/04 07:33:02;;;;;;;14.07;7.25;;;;;;;20.90;100.00;101509.06;4991292;28;20027;-68
2023/10/04 07:35:28;;;;;;;19.40;7.45;;;;;;;20.79;100.00;101482.84;4973855;28;20409;-70
2023/10/04 07:37:55;;;;;;;16.50;7.40;;;;;;;20.93;100.00;101483.03;4973915;28;20108;-71
2023/10/04 07:40:23;;;;;;;16.85;8.15;;;;;;;20.81;100.00;101489.63;4991630;28;20508;-71
2023/10/04 07:42:52;;;;;;;18.92;8.35;;;;;;;19.37;100.00;101527.69;4990010;28;20034;-71
2023/10/04 07:45:19;;;;;;;22.17;8.80;;;;;;;19.58;100.00;101475.22;4991391;28;20040;-73
2023/10/04 07:47:45;;;;;;;18.98;8.77;;;;;;;20.75;100.00;101518.34;4991466;28;20084;-72
2023/10/04 07:50:15;;;;;;;18.40;8.43;;;;;;;20.48;100.00;101462.72;4973773;28;20417;-74
2023/10/04 07:52:42;;;;;;;16.55;8.55;;;;;;;20.48;100.00;101439.47;4991749;28;20034;-71
2023/10/04 07:55:14;;;;;;;16.00;8.57;;;;;;;20.83;100.00;101503.31;4994072;28;20081;-72
2023/10/04 07:57:42;;;;;;;;;;;;;;;20.53;100.00;101518.47;5008898;28;20061;-71
2023/10/04 08:00:15;;;;;;;18.35;7.97;;;;;;;20.47;100.00;101409.34;4999179;28;19910;-72
2023/10/04 08:02:51;;;;;;;17.77;8.52;;;;;;;22.17;100.00;101462.22;4991211;28;20599;-73
2023/10/04 08:05:20;;;;;;;22.65;8.20;;;;;;;20.50;100.00;101448.81;4991441;28;20037;-72
2023/10/04 08:07:50;;;;;;;19.33;7.85;;;;;;;21.07;100.00;101489.28;4991550;28;20096;-72
2023/10/04 08:10:23;;;;;;;19.03;7.80;;;;;;;21.71;100.00;101478.41;4973839;28;20045;-72
2023/10/04 08:12:51;;;;;;;18.50;8.15;;;;;;;21.54;100.00;101456.78;4991431;28;20070;-72
2023/10/04 08:15:19;;;;;;;21.58;8.02;;;;;;;21.89;100.00;101460.19;4990967;28;20030;-72
2023/10/04 08:17:48;;;;;;;14.77;7.38;;;;;;;22.06;100.00;101399.75;4991061;28;20030;-72
2023/10/04 08:20:14;;;;;;;18.00;7.90;;;;;;;21.27;100.00;101424.47;4991156;28;20099;-72
2023/10/04 08:22:44;;;;;;;23.55;10.18;;;;;;;22.20;100.00;101443.94;4991243;28;20026;-72
2023/10/04 08:25:18;;;;;;;19.55;9.32;;;;;;;21.69;100.00;101465.50;4990702;28;20109;-72
2023/10/04 08:27:44;;;;;;;21.90;13.57;;;;;;;21.59;100.00;101386.63;4988634;28;20116;-72
2023/10/04 08:30:12;;;;;;;24.60;13.93;;;;;;;22.59;100.00;101436.63;4991228;28;20038;-72
2023/10/04 08:32:42;;;;;;;18.05;9.77;;;;;;;22.01;100.00;101406.91;4991415;28;20034;-73
2023/10/04 08:35:21;;;;;;;19.75;9.68;;;;;;;22.28;100.00;101421.84;4991832;28;20034;-72
2023/10/04 08:37:55;;;;;;;15.05;8.48;;;;;;;22.57;100.00;101358.09;4991276;28;20038;-73
2023/10/04 08:40:26;;;;;;;25.88;18.80;;;;;;;22.89;100.00;101388.28;4973420;28;20045;-72
2023/10/04 08:42:52;;;;;;;20.10;10.90;;;;;;;23.27;100.00;101367.91;4992691;28;20148;-72
2023/10/04 08:45:21;;;;;;;17.92;9.25;;;;;;;22.75;100.00;101415.88;4994575;28;20113;-73
2023/10/04 08:47:52;;;;;;;14.85;8.07;;;;;;;22.24;100.00;101398.78;4994598;28;20030;-73
2023/10/04 08:50:31;;;;;;;15.80;8.63;;;;;;;22.71;100.00;101437.72;4977123;28;20034;-73
2023/10/04 08:53:14;;;;;;;34.05;23.75;;;;;;;22.84;100.00;101412.81;4994965;28;20041;-72
2023/10/04 08:55:41;;;;;;;21.17;12.52;;;;;;;23.09;100.00;101420.88;4994538;28;20030;-72
2023/10/04 08:58:09;;;;;;;34.28;17.02;;;;;;;22.72;100.00;101351.22;4977001;28;20088;-72
2023/10/04 09:00:36;;;;;;;24.42;16.02;;;;;;;23.25;100.00;101362.78;4994311;28;20037;-72
2023/10/04 09:03:07;;;;;;;16.85;11.02;;;;;;;23.42;100.00;101403.38;4994435;28;20089;-71
2023/10/04 09:05:33;;;;;;;20.80;11.88;;;;;;;23.67;100.00;101397.59;4976915;28;20034;-71
2023/10/04 09:07:58;;;;;;;21.42;11.77;;;;;;;23.56;100.00;101393.03;4994375;28;20041;-72
2023/10/04 09:10:26;;;;;;;24.02;11.82;;;;;;;23.62;100.00;101392.66;4976658;28;20034;-73
2023/10/04 09:12:51;;;;;;;27.65;15.13;;;;;;;23.18;100.00;101363.22;4993987;28;20035;-71
2023/10/04 09:15:17;;;;;;;20.85;10.55;;;;;;;23.39;100.00;101403.56;4993610;28;20469;-72
2023/10/04 09:17:47;;;;;;;21.05;10.07;;;;;;;23.66;100.00;101401.09;4993832;28;20489;-72
2023/10/04 09:20:15;;;;;;;21.27;10.50;;;;;;;23.84;100.00;101358.44;4993605;28;20045;-72
2023/10/04 09:22:41;;;;;;;50.92;36.88;;;;;;;22.82;100.00;101412.88;4976590;28;20046;-72
2023/10/04 09:25:07;;;;;;;30.48;20.45;;;;;;;24.13;100.00;101369.69;4973739;28;20042;-72
2023/10/04 09:27:32;;;;;;;24.98;15.77;;;;;;;23.29;100.00;101353.88;4976607;28;20076;-72
2023/10/04 09:29:59;;;;;;;21.95;10.93;;;;;;;23.78;100.00;101392.59;4992658;28;20404;-73
2023/10/04 09:32:40;;;;;;;25.27;14.73;;;;;;;23.81;100.00;101382.03;4993523;28;20125;-72
2023/10/04 09:35:06;;;;;;;34.85;21.15;;;;;;;24.63;100.00;101346.50;4976565;28;20069;-74
2023/10/04 09:37:31;;;;;;;20.63;12.27;;;;;;;24.80;100.00;101351.47;4992371;28;20456;-74
2023/10/04 09:40:08;;;;;;;21.00;11.88;;;;;;;24.52;100.00;101334.19;4993840;28;20030;-74
2023/10/04 09:42:53;;;;;;;20.17;11.40;;;;;;;24.80;100.00;101336.72;4993313;28;20030;-71
2023/10/04 09:45:26;;;;;;;20.40;12.60;;;;;;;24.42;100.00;101320.13;4993568;28;20038;-67
2023/10/04 09:47:53;;;;;;;19.88;12.40;;;;;;;23.97;100.00;101232.84;4993334;28;20027;-71
2023/10/04 09:50:21;;;;;;;31.45;20.05;;;;;;;24.53;100.00;101329.81;4993530;28;20026;-72
2023/10/04 09:52:47;;;;;;;20.35;14.05;;;;;;;23.54;100.00;101316.13;4975652;28;20026;-69
2023/10/04 09:55:13;;;;;;;19.35;10.80;;;;;;;24.19;100.00;101268.72;4992022;28;20034;-70
2023/10/04 09:57:42;;;;;;;17.50;8.52;;;;;;;24.89;100.00;101245.03;4993083;28;20030;-70
2023/10/04 10:00:17;;;;;;;15.63;8.25;;;;;;;24.36;100.00;101298.88;4991666;28;20425;-70
2023/10/04 10:02:49;;;;;;;16.58;7.95;;;;;;;24.48;100.00;101301.50;4992739;28;20033;-69
2023/10/04 10:05:26;;;;;;;16.08;8.52;;;;;;;24.34;100.00;101308.53;4992323;28;20034;-72
2023/10/04 10:07:54;;;;;;;15.15;7.70;;;;;;;25.74;100.00;101283.44;4992163;28;20026;-72
2023/10/04 10:10:23;;;;;;;20.45;9.20;;;;;;;25.02;100.00;101265.84;4992297;28;20101;-72
2023/10/04 10:12:50;;;;;;;22.42;10.18;;;;;;;24.61;100.00;101241.72;4992061;28;20083;-70
2023/10/04 10:15:18;;;;;;;16.33;8.85;;;;;;;25.46;100.00;101219.41;4992314;28;20519;-72
2023/10/04 10:17:46;;;;;;;18.88;8.18;;;;;;;25.44;100.00;101221.28;4992148;28;20030;-69
2023/10/04 10:20:15;;;;;;;19.90;8.38;;;;;;;25.31;100.00;101264.72;4992618;28;20034;-69
2023/10/04 10:22:58;;;;;;;18.75;8.73;;;;;;;25.98;100.00;101252.19;4975417;28;20033;-71
2023/10/04 10:25:25;;;;;;;16.20;7.82;;;;;;;25.59;100.00;101220.19;4991239;28;20504;-71
2023/10/04 10:27:55;;;;;;;15.73;7.75;;;;;;;25.54;100.00;101235.34;4992775;28;20034;-70
2023/10/04 10:30:23;;;;;;;14.40;8.05;;;;;;;25.64;100.00;101205.09;4992127;28;20038;-72
2023/10/04 10:32:55;;;;;;;15.77;8.25;;;;;;;26.17;100.00;101236.91;4992301;28;20117;-71
2023/10/04 10:35:48;;;;;;;14.35;8.50;;;;;;;26.26;100.00;101236.25;4992518;28;20061;-72
2023/10/04 10:38:50;;;;;;;21.02;7.47;;;;;;;26.37;100.00;101229.31;4975108;28;20030;-72
2023/10/04 10:41:27;;;;;;;16.65;8.13;;;;;;;26.25;100.00;101230.22;4950854;28;20044;-70
2023/10/04 10:44:11;;;;;;;19.27;8.18;;;;;;;26.87;100.00;101209.06;4992476;28;20124;-72
2023/10/04 10:46:55;;;;;;;19.98;8.88;;;;;;;26.46;100.00;101212.97;4992320;28;20037;-71
2023/10/04 10:49:55;;;;;;;16.35;8.20;;;;;;;26.78;100.00;101204.56;4992374;28;20045;-71
2023/10/04 10:52:25;;;;;;;15.70;8.05;;;;;;;26.67;100.00;101209.69;4992405;28;20034;-71
2023/10/04 10:54:57;;;;;;;15.35;8.05;;;;;;;26.40;100.00;101199.56;4992248;28;20096;-71
2023/10/04 10:57:25;;;;;;;14.57;7.78;;;;;;;27.08;100.00;101171.69;4992033;28;20026;-71
2023/10/04 10:59:55;;;;;;;14.07;8.07;;;;;;;26.35;100.00;101209.50;4991735;28;20026;-71
2023/10/04 11:02:21;;;;;;;16.13;8.13;;;;;;;26.39;100.00;101145.72;4992105;28;20030;-71
2023/10/04 11:04:48;;;;;;;14.68;8.32;;;;;;;26.45;100.00;101146.09;4974323;28;20034;-70
2023/10/04 11:07:17;;;;;;;15.02;7.90;;;;;;;26.88;100.00;101174.19;4991928;28;20035;-71
2023/10/04 11:09:49;;;;;;;14.00;8.30;;;;;;;26.85;100.00;101161.34;4974631;28;20037;-71
2023/10/04 11:12:18;;;;;;;17.75;9.15;;;;;;;27.03;100.00;101112.94;4974307;28;20030;-70
2023/10/04 11:14:44;;;;;;;15.48;8.02;;;;;;;27.33;100.00;101165.41;4991561;28;20053;-71
2023/10/04 11:17:14;;;;;;;27.70;8.38;;;;;;;27.12;100.00;101154.00;4992909;28;20031;-70
2023/10/04 11:19:41;;;;;;;17.17;8.27;;;;;;;27.13;100.00;101101.66;4990724;28;20026;-70
2023/10/04 11:22:08;;;;;;;17.35;8.13;;;;;;;26.28;100.00;101088.31;5007518;28;20026;-71
2023/10/04 11:24:35;;;;;;;16.48;8.15;;;;;;;26.40;100.00;101160.44;4976074;28;20057;-70